메인 페이지
METAR-TAF:

METAR-TAF

공항 :

아디야만, 터키

위도: 37-43-54N, 경도: 38-28-08E, 고도: 675m

현재 날씨관측

예보는 56분 전, 07:50시(UTC)에 발표되었습니다.
북동16kt
온도 21°C
습도 16%
기압 1012 hPa
시정 10km 이상
1500m 미만 상공 구름 및 적란운 없음

METAR: LTCP 100750Z 05016KT CAVOK 21/M06 Q1012

시각: 11:46 (08:46 UTC)

예보

예보는 1 시간 6분 전, 07:40시(UTC)에 발표되었습니다.
예보 대상 시간: 10일 09시부터 10일 18시까지 (UTC)
북북동14kt
시정 10km 이상
1500m 미만 상공 구름 및 적란운 없음
일시적
10일 12시부터 10일 16시까지 (UTC)
북북동15kt, 순간 최대 풍속 25kt

TAF: LTCP 100740Z 1009/1018 03014KT CAVOK TEMPO 1012/1016 03015G25KT

4,000개 이상의 공항 관측 자료 및 예보 (METAR 및 TAF 보고).

지도상에서 검색 가능한 기상관측소가 노란 점과 빨간 점으로 표시되어 있습니다.

기상관측소 명을 보려면 표시 위로 마우스를 이동하세요.

날씨 관측과 예보를 보려면 클릭하세요.

지도 변경 : 확대하려면 엑스 표시가 있는 녹색 버튼, 축소하려면 빼기 표시가 있는 녹색 버튼, 다음 페이지의 지도를 보려면 녹색 화살표를 클릭하세요.


METAR-TAF: